WetterOnline ( https://www.wetteronline.de )

Wetter aktuell Emden

Aktuelles Wetter: Emden (5m)

6-stündlich | Neueste Meldungen
Ortszeit Temperatur Wetter
Sa, 25.06. 8:00 18.8° C wolkenlos
Sa, 25.06. 2:00 17.0° C bewölkt
Fr, 24.06. 20:00 21.4° C wolkenlos
Fr, 24.06. 14:00 20.1° C bedeckt
Fr, 24.06. 8:00 20.6° C wolkig
Fr, 24.06. 2:00 16.9° C wolkenlos
Do, 23.06. 20:00 28.1° C wolkenlos
Do, 23.06. 14:00 27.4° C wolkenlos
Ortszeit Temperatur Wetter
Sa, 25.06. 10:30 21.1° C fast wolkenlos
Sa, 25.06. 10:20 21.1° C fast wolkenlos
Sa, 25.06. 10:10 21.0° C leicht bewölkt
Sa, 25.06. 10:00 20.8° C leicht bewölkt
Sa, 25.06. 9:50 20.8° C leicht bewölkt
Sa, 25.06. 9:40 20.4° C bewölkt
Sa, 25.06. 9:30 19.8° C wolkig
Sa, 25.06. 9:00 19.8° C fast wolkenlos
Sa, 25.06. 8:30 19.6° C leicht bewölkt
Sa, 25.06. 8:00 18.8° C wolkenlos
Sa, 25.06. 7:30 18.0° C wolkenlos
Sa, 25.06. 7:00 17.4° C wolkenlos
Ortszeit Relative Feuchte Sichtweite
Sa, 25.06. 8:00 84% 30 km
Sa, 25.06. 2:00 93% 26 km
Fr, 24.06. 20:00 71% 60 km
Fr, 24.06. 14:00 85% 60 km
Fr, 24.06. 8:00 63% >70 km
Fr, 24.06. 2:00 77% 65 km
Do, 23.06. 20:00 42% >70 km
Do, 23.06. 14:00 42% >70 km
Ortszeit Relative Feuchte Sichtweite
Sa, 25.06. 10:30 74% 55 km
Sa, 25.06. 10:20 74% -
Sa, 25.06. 10:10 75% -
Sa, 25.06. 10:00 76% 55 km
Sa, 25.06. 9:50 76% -
Sa, 25.06. 9:40 78% -
Sa, 25.06. 9:30 78% 40 km
Sa, 25.06. 9:00 79% 40 km
Sa, 25.06. 8:30 81% 45 km
Sa, 25.06. 8:00 84% 30 km
Sa, 25.06. 7:30 88% 29 km
Sa, 25.06. 7:00 92% 20 km
Ortszeit Niederschlagsmenge Niederschlagsart
Sa, 25.06. 8:00 0.0 l/m2 in 12 Std. -
Sa, 25.06. 2:00 0.0 l/m2 in 6 Std. -
Fr, 24.06. 20:00 3 l/m2 in 12 Std. Regen
Fr, 24.06. 14:00 0.9 l/m2 in 6 Std. Regen
Fr, 24.06. 8:00 0.0 l/m2 in 12 Std. -
Fr, 24.06. 2:00 0.0 l/m2 in 6 Std. -
Do, 23.06. 20:00 0.0 l/m2 in 12 Std. -
Do, 23.06. 14:00 0.0 l/m2 in 6 Std. -
Ortszeit Niederschlagsmenge Niederschlagsart
Sa, 25.06. 10:30 0.0 l/m2 in 1 Std. -
Sa, 25.06. 10:20 keine Meldung -
Sa, 25.06. 10:10 keine Meldung -
Sa, 25.06. 10:00 0.0 l/m2 in 1 Std. -
Sa, 25.06. 9:50 keine Meldung -
Sa, 25.06. 9:40 keine Meldung -
Sa, 25.06. 9:30 0.0 l/m2 in 1 Std. -
Sa, 25.06. 9:00 0.0 l/m2 in 1 Std. -
Sa, 25.06. 8:30 0.0 l/m2 in 1 Std. -
Sa, 25.06. 8:00 0.0 l/m2 in 1 Std. -
Sa, 25.06. 7:30 0.0 l/m2 in 1 Std. -
Sa, 25.06. 7:00 0.0 l/m2 in 1 Std. -
Ortszeit Stärke Spitze Richtung
km/h Bft. km/h Grad Sektor
Sa, 25.06. 8:00 9 2 22 170° S
Sa, 25.06. 2:00 6 1 11 130° SO
Fr, 24.06. 20:00 4 1 22 150° SO
Fr, 24.06. 14:00 9 2 37 270° W
Fr, 24.06. 8:00 7 2 18 120° SO
Fr, 24.06. 2:00 11 2 22 90° O
Do, 23.06. 20:00 14 3 32 90° O
Do, 23.06. 14:00 15 3 31 120° SO
Ortszeit Stärke Spitze Richtung
km/h Bft. km/h Grad Sektor
Sa, 25.06. 10:30 14 3 22 180° S
Sa, 25.06. 10:20 14 3 - 180° S
Sa, 25.06. 10:10 13 3 - 180° S
Sa, 25.06. 10:00 15 3 24 200° S
Sa, 25.06. 9:50 15 3 - 200° S
Sa, 25.06. 9:40 13 3 - 190° S
Sa, 25.06. 9:30 14 3 25 180° S
Sa, 25.06. 9:00 13 3 24 180° S
Sa, 25.06. 8:30 13 3 22 180° S
Sa, 25.06. 8:00 9 2 22 170° S
Sa, 25.06. 7:30 14 3 22 160° S
Sa, 25.06. 7:00 11 2 14 150° SO
Ortszeit Untergrenze Bedeckung Gattung
total tief tief mittel hoch
Sa, 25.06. 8:00 - 0/8 0/8 - - -
Sa, 25.06. 2:00 3600 m 8/8 5/8 - - -
Fr, 24.06. 20:00 - 0/8 0/8 - - -
Fr, 24.06. 14:00 360 m 8/8 8/8 - - -
Fr, 24.06. 8:00 2700 m 7/8 2/8 - - -
Fr, 24.06. 2:00 - 0/8 0/8 - - -
Do, 23.06. 20:00 - 0/8 0/8 - - -
Do, 23.06. 14:00 - 0/8 0/8 - - -
Ortszeit Bedeckungsgrad in Achtel und Wolkenuntergrenze
Sa, 25.06. 10:30 1(8700m)
Sa, 25.06. 10:20 1(8700m)
Sa, 25.06. 10:10 2
Sa, 25.06. 10:00 3(9000m) 6(10500m)
Sa, 25.06. 9:50 3(9000m) 6(10500m)
Sa, 25.06. 9:40 7
Sa, 25.06. 9:30 7(9000m) 7(10500m)
Sa, 25.06. 9:00 2(10500m)
Sa, 25.06. 8:30 6(10500m)
Sa, 25.06. 8:00 keine Wolken
Sa, 25.06. 7:30 keine Wolken
Sa, 25.06. 7:00 keine Wolken
Ortszeit Luftdruck NN (hPa) Tendenz (hPa in 3 Std.)
Sa, 25.06. 8:00 1010 + 1,1
Sa, 25.06. 2:00 1008 + 0,3
Fr, 24.06. 20:00 1007 + 0,4
Fr, 24.06. 14:00 1006 + 1,2
Fr, 24.06. 8:00 1005 - 1,3
Fr, 24.06. 2:00 1008 - 1,2
Do, 23.06. 20:00 1009 - 1,3
Do, 23.06. 14:00 1012 - 1,3
Ortszeit Luftdruck NN (hPa) Tendenz (hPa in 3 Std.)
Sa, 25.06. 10:30 1011 + 1,2
Sa, 25.06. 10:20 1011 keine Meldung
Sa, 25.06. 10:10 1011 keine Meldung
Sa, 25.06. 10:00 1011 + 1,4
Sa, 25.06. 9:50 1011 keine Meldung
Sa, 25.06. 9:40 1011 keine Meldung
Sa, 25.06. 9:30 1011 + 1,3
Sa, 25.06. 9:00 1011 + 1,1
Sa, 25.06. 8:30 1011 + 1,1
Sa, 25.06. 8:00 1010 + 1,1
Sa, 25.06. 7:30 1010 + 1,1
Sa, 25.06. 7:00 1010 + 1,0
Ortszeit Schneehöhe (cm)
Sa, 25.06. 8:00 0
Sa, 25.06. 2:00 0
Fr, 24.06. 20:00 0
Fr, 24.06. 14:00 0
Fr, 24.06. 8:00 0
Fr, 24.06. 2:00 0
Do, 23.06. 20:00 0
Do, 23.06. 14:00 0
Ortszeit Schneehöhe (cm)
Sa, 25.06. 10:30 0
Sa, 25.06. 10:20 0
Sa, 25.06. 10:10 0
Sa, 25.06. 10:00 0
Sa, 25.06. 9:50 0
Sa, 25.06. 9:40 0
Sa, 25.06. 9:30 0
Sa, 25.06. 9:00 0
Sa, 25.06. 8:30 0
Sa, 25.06. 8:00 0
Sa, 25.06. 7:30 0
Sa, 25.06. 7:00 0
Link zu dieser Seite / Seite empfehlen

Das Wetter in ...